Terminal Aerodrome Forecast
Issued by NWS Lubbock, TX

Home | Current Version | Previous Version | Text Only | Print | Product List | Glossary On
Versions: 1 2 3 4 5 6 7 8 9 10 11 12 13 14 15 16 17 18
363
FTUS44 KLUB 080701 AAA
TAFLBB
TAF AMD
KLBB 080701Z 0807/0906 04017KT P6SM FEW015 BKN035 OVC060
     FM081800 06009KT P6SM SCT025 OVC050=

USA.gov is the U.S. government's official web portal to all federal, state and local government web resources and services.